sensor_id;sensor_type;location;lat;lon;timestamp;pressure;altitude;pressure_sealevel;temperature;humidity
68525;BME280;55524;51.380;13.372;2023-09-30T00:01:34;100999.41;;;18.35;100.00
68525;BME280;55524;51.380;13.372;2023-09-30T00:04:01;101002.94;;;18.05;100.00
68525;BME280;55524;51.380;13.372;2023-09-30T00:06:29;101020.00;;;17.73;100.00
68525;BME280;55524;51.380;13.372;2023-09-30T00:08:55;101031.31;;;17.30;100.00
68525;BME280;55524;51.380;13.372;2023-09-30T00:11:22;101032.63;;;17.07;100.00
68525;BME280;55524;51.380;13.372;2023-09-30T00:13:48;101037.78;;;16.77;100.00
68525;BME280;55524;51.380;13.372;2023-09-30T00:16:15;101032.06;;;16.67;100.00
68525;BME280;55524;51.380;13.372;2023-09-30T00:18:44;101038.06;;;16.55;100.00
68525;BME280;55524;51.380;13.372;2023-09-30T00:21:10;101048.81;;;16.36;100.00
68525;BME280;55524;51.380;13.372;2023-09-30T00:23:37;101049.06;;;16.32;100.00
68525;BME280;55524;51.380;13.372;2023-09-30T00:26:04;101040.81;;;16.19;100.00
68525;BME280;55524;51.380;13.372;2023-09-30T00:28:31;101040.09;;;16.15;100.00
68525;BME280;55524;51.380;13.372;2023-09-30T00:30:57;101048.03;;;16.17;100.00
68525;BME280;55524;51.380;13.372;2023-09-30T00:33:24;101043.66;;;16.16;100.00
68525;BME280;55524;51.380;13.372;2023-09-30T00:35:51;101044.34;;;16.19;100.00
68525;BME280;55524;51.380;13.372;2023-09-30T00:38:17;101051.41;;;16.20;100.00
68525;BME280;55524;51.380;13.372;2023-09-30T00:40:50;101047.88;;;16.20;100.00
68525;BME280;55524;51.380;13.372;2023-09-30T00:43:20;101050.22;;;16.09;100.00
68525;BME280;55524;51.380;13.372;2023-09-30T00:45:48;101050.84;;;15.96;100.00
68525;BME280;55524;51.380;13.372;2023-09-30T00:48:16;101052.66;;;15.96;100.00
68525;BME280;55524;51.380;13.372;2023-09-30T00:50:43;101061.66;;;15.93;100.00
68525;BME280;55524;51.380;13.372;2023-09-30T00:53:09;101068.09;;;15.89;100.00
68525;BME280;55524;51.380;13.372;2023-09-30T00:55:36;101062.66;;;15.91;100.00
68525;BME280;55524;51.380;13.372;2023-09-30T00:58:03;101061.75;;;15.92;100.00
68525;BME280;55524;51.380;13.372;2023-09-30T01:00:30;101064.47;;;15.90;100.00
68525;BME280;55524;51.380;13.372;2023-09-30T01:02:57;101062.59;;;15.92;100.00
68525;BME280;55524;51.380;13.372;2023-09-30T01:05:25;101065.31;;;15.91;100.00
68525;BME280;55524;51.380;13.372;2023-09-30T01:07:51;101067.06;;;15.92;100.00
68525;BME280;55524;51.380;13.372;2023-09-30T01:10:18;101065.41;;;15.89;100.00
68525;BME280;55524;51.380;13.372;2023-09-30T01:12:44;101072.78;;;15.84;100.00
68525;BME280;55524;51.380;13.372;2023-09-30T01:15:10;101077.22;;;15.84;100.00
68525;BME280;55524;51.380;13.372;2023-09-30T01:17:37;101086.75;;;15.89;100.00
68525;BME280;55524;51.380;13.372;2023-09-30T01:20:03;101077.03;;;15.88;100.00
68525;BME280;55524;51.380;13.372;2023-09-30T01:22:34;101081.41;;;15.89;100.00
68525;BME280;55524;51.380;13.372;2023-09-30T01:25:00;101079.59;;;15.90;100.00
68525;BME280;55524;51.380;13.372;2023-09-30T01:27:27;101084.56;;;15.97;100.00
68525;BME280;55524;51.380;13.372;2023-09-30T01:29:53;101085.66;;;15.93;100.00
68525;BME280;55524;51.380;13.372;2023-09-30T01:32:19;101092.31;;;16.02;100.00
68525;BME280;55524;51.380;13.372;2023-09-30T01:34:45;101089.91;;;15.97;100.00
68525;BME280;55524;51.380;13.372;2023-09-30T01:37:12;101079.38;;;15.94;100.00
68525;BME280;55524;51.380;13.372;2023-09-30T01:39:39;101072.22;;;15.95;100.00
68525;BME280;55524;51.380;13.372;2023-09-30T01:42:05;101082.84;;;15.96;100.00
68525;BME280;55524;51.380;13.372;2023-09-30T01:44:31;101088.16;;;15.96;100.00
68525;BME280;55524;51.380;13.372;2023-09-30T01:46:58;101093.66;;;15.93;100.00
68525;BME280;55524;51.380;13.372;2023-09-30T01:49:25;101105.16;;;15.94;100.00
68525;BME280;55524;51.380;13.372;2023-09-30T01:51:52;101104.53;;;15.89;100.00
68525;BME280;55524;51.380;13.372;2023-09-30T01:54:19;101112.59;;;15.87;100.00
68525;BME280;55524;51.380;13.372;2023-09-30T01:56:45;101117.88;;;15.89;100.00
68525;BME280;55524;51.380;13.372;2023-09-30T01:59:11;101127.81;;;15.85;100.00
68525;BME280;55524;51.380;13.372;2023-09-30T02:01:38;101126.81;;;15.88;100.00
68525;BME280;55524;51.380;13.372;2023-09-30T02:04:04;101128.75;;;15.84;100.00
68525;BME280;55524;51.380;13.372;2023-09-30T02:06:32;101140.69;;;15.76;100.00
68525;BME280;55524;51.380;13.372;2023-09-30T02:08:58;101130.13;;;15.74;100.00
68525;BME280;55524;51.380;13.372;2023-09-30T02:11:25;101127.91;;;15.65;100.00
68525;BME280;55524;51.380;13.372;2023-09-30T02:13:51;101124.03;;;15.72;100.00
68525;BME280;55524;51.380;13.372;2023-09-30T02:16:17;101142.88;;;15.67;100.00
68525;BME280;55524;51.380;13.372;2023-09-30T02:18:44;101125.63;;;15.56;100.00
68525;BME280;55524;51.380;13.372;2023-09-30T02:21:17;101131.84;;;15.56;100.00
68525;BME280;55524;51.380;13.372;2023-09-30T02:23:44;101129.38;;;15.52;100.00
68525;BME280;55524;51.380;13.372;2023-09-30T02:26:15;101130.66;;;15.43;100.00
68525;BME280;55524;51.380;13.372;2023-09-30T02:28:41;101141.97;;;15.48;100.00
68525;BME280;55524;51.380;13.372;2023-09-30T02:31:07;101151.41;;;15.36;100.00
68525;BME280;55524;51.380;13.372;2023-09-30T02:33:34;101154.22;;;15.33;100.00
68525;BME280;55524;51.380;13.372;2023-09-30T02:36:07;101157.78;;;15.32;100.00
68525;BME280;55524;51.380;13.372;2023-09-30T02:38:35;101158.16;;;15.24;100.00
68525;BME280;55524;51.380;13.372;2023-09-30T02:41:03;101160.16;;;15.19;100.00
68525;BME280;55524;51.380;13.372;2023-09-30T02:43:30;101174.28;;;15.21;100.00
68525;BME280;55524;51.380;13.372;2023-09-30T02:45:56;101180.28;;;15.06;100.00
68525;BME280;55524;51.380;13.372;2023-09-30T02:48:22;101181.00;;;15.10;100.00
68525;BME280;55524;51.380;13.372;2023-09-30T02:50:48;101197.25;;;15.04;100.00
68525;BME280;55524;51.380;13.372;2023-09-30T02:53:15;101204.56;;;14.98;100.00
68525;BME280;55524;51.380;13.372;2023-09-30T02:55:41;101211.09;;;14.91;100.00
68525;BME280;55524;51.380;13.372;2023-09-30T02:58:08;101208.41;;;14.91;100.00
68525;BME280;55524;51.380;13.372;2023-09-30T03:00:35;101214.59;;;14.92;100.00
68525;BME280;55524;51.380;13.372;2023-09-30T03:03:04;101210.44;;;14.86;100.00
68525;BME280;55524;51.380;13.372;2023-09-30T03:05:30;101216.41;;;14.71;100.00
68525;BME280;55524;51.380;13.372;2023-09-30T03:08:00;101227.34;;;14.63;100.00
68525;BME280;55524;51.380;13.372;2023-09-30T03:10:27;101235.72;;;14.54;100.00
68525;BME280;55524;51.380;13.372;2023-09-30T03:12:54;101244.78;;;14.48;100.00
68525;BME280;55524;51.380;13.372;2023-09-30T03:15:21;101244.09;;;14.43;100.00
68525;BME280;55524;51.380;13.372;2023-09-30T03:17:47;101251.13;;;14.44;100.00
68525;BME280;55524;51.380;13.372;2023-09-30T03:20:14;101258.34;;;14.42;100.00
68525;BME280;55524;51.380;13.372;2023-09-30T03:22:45;101257.97;;;14.30;100.00
68525;BME280;55524;51.380;13.372;2023-09-30T03:25:16;101257.88;;;14.31;100.00
68525;BME280;55524;51.380;13.372;2023-09-30T03:27:44;101269.75;;;14.22;100.00
68525;BME280;55524;51.380;13.372;2023-09-30T03:30:13;101276.41;;;14.11;100.00
68525;BME280;55524;51.380;13.372;2023-09-30T03:32:40;101286.22;;;14.09;100.00
68525;BME280;55524;51.380;13.372;2023-09-30T03:35:10;101288.31;;;14.00;100.00
68525;BME280;55524;51.380;13.372;2023-09-30T03:37:40;101296.25;;;14.02;100.00
68525;BME280;55524;51.380;13.372;2023-09-30T03:40:07;101294.78;;;13.93;100.00
68525;BME280;55524;51.380;13.372;2023-09-30T03:43:00;101300.38;;;13.86;100.00
68525;BME280;55524;51.380;13.372;2023-09-30T03:45:27;101304.63;;;13.91;100.00
68525;BME280;55524;51.380;13.372;2023-09-30T03:47:53;101293.41;;;13.83;100.00
68525;BME280;55524;51.380;13.372;2023-09-30T03:50:19;101302.13;;;13.87;100.00
68525;BME280;55524;51.380;13.372;2023-09-30T03:52:47;101314.00;;;13.76;100.00
68525;BME280;55524;51.380;13.372;2023-09-30T03:55:14;101314.25;;;13.70;100.00
68525;BME280;55524;51.380;13.372;2023-09-30T03:57:41;101326.03;;;13.63;100.00
68525;BME280;55524;51.380;13.372;2023-09-30T04:00:08;101320.88;;;13.59;100.00
68525;BME280;55524;51.380;13.372;2023-09-30T04:02:37;101322.19;;;13.47;100.00
68525;BME280;55524;51.380;13.372;2023-09-30T04:05:04;101326.81;;;13.40;100.00
68525;BME280;55524;51.380;13.372;2023-09-30T04:07:31;101328.94;;;13.31;100.00
68525;BME280;55524;51.380;13.372;2023-09-30T04:09:58;101330.78;;;13.28;100.00
68525;BME280;55524;51.380;13.372;2023-09-30T04:12:27;101328.34;;;13.21;100.00
68525;BME280;55524;51.380;13.372;2023-09-30T04:14:54;101325.84;;;13.16;100.00
68525;BME280;55524;51.380;13.372;2023-09-30T04:17:20;101335.91;;;13.07;100.00
68525;BME280;55524;51.380;13.372;2023-09-30T04:19:49;101346.78;;;12.99;100.00
68525;BME280;55524;51.380;13.372;2023-09-30T04:22:17;101343.50;;;12.91;100.00
68525;BME280;55524;51.380;13.372;2023-09-30T04:24:45;101342.88;;;12.83;100.00
68525;BME280;55524;51.380;13.372;2023-09-30T04:27:12;101342.00;;;12.82;100.00
68525;BME280;55524;51.380;13.372;2023-09-30T04:29:38;101354.72;;;12.71;100.00
68525;BME280;55524;51.380;13.372;2023-09-30T04:32:05;101358.38;;;12.68;100.00
68525;BME280;55524;51.380;13.372;2023-09-30T04:34:32;101365.53;;;12.65;100.00
68525;BME280;55524;51.380;13.372;2023-09-30T04:36:58;101361.78;;;12.72;100.00
68525;BME280;55524;51.380;13.372;2023-09-30T04:39:25;101368.75;;;12.76;100.00
68525;BME280;55524;51.380;13.372;2023-09-30T04:41:52;101372.34;;;12.73;100.00
68525;BME280;55524;51.380;13.372;2023-09-30T04:44:18;101370.94;;;12.62;100.00
68525;BME280;55524;51.380;13.372;2023-09-30T04:46:44;101377.16;;;12.61;100.00
68525;BME280;55524;51.380;13.372;2023-09-30T04:49:14;101386.13;;;12.57;100.00
68525;BME280;55524;51.380;13.372;2023-09-30T04:51:40;101392.59;;;12.48;100.00
68525;BME280;55524;51.380;13.372;2023-09-30T04:54:07;101397.19;;;12.41;100.00
68525;BME280;55524;51.380;13.372;2023-09-30T04:56:35;101402.63;;;12.37;100.00
68525;BME280;55524;51.380;13.372;2023-09-30T04:59:01;101409.94;;;12.28;100.00
68525;BME280;55524;51.380;13.372;2023-09-30T05:01:28;101401.22;;;12.25;100.00
68525;BME280;55524;51.380;13.372;2023-09-30T05:03:55;101398.94;;;12.11;100.00
68525;BME280;55524;51.380;13.372;2023-09-30T05:06:21;101392.84;;;12.07;100.00
68525;BME280;55524;51.380;13.372;2023-09-30T05:08:48;101385.66;;;12.13;100.00
68525;BME280;55524;51.380;13.372;2023-09-30T05:11:14;101384.09;;;12.05;100.00
68525;BME280;55524;51.380;13.372;2023-09-30T05:13:41;101377.09;;;12.03;100.00
68525;BME280;55524;51.380;13.372;2023-09-30T05:16:07;101374.41;;;12.04;100.00
68525;BME280;55524;51.380;13.372;2023-09-30T05:18:34;101377.13;;;12.01;100.00
68525;BME280;55524;51.380;13.372;2023-09-30T05:21:00;101376.28;;;12.01;100.00
68525;BME280;55524;51.380;13.372;2023-09-30T05:23:27;101386.00;;;12.00;100.00
68525;BME280;55524;51.380;13.372;2023-09-30T05:25:53;101380.66;;;12.02;100.00
68525;BME280;55524;51.380;13.372;2023-09-30T05:28:23;101385.97;;;12.02;100.00
68525;BME280;55524;51.380;13.372;2023-09-30T05:30:49;101387.53;;;12.07;100.00
68525;BME280;55524;51.380;13.372;2023-09-30T05:33:16;101389.16;;;12.13;100.00
68525;BME280;55524;51.380;13.372;2023-09-30T05:35:42;101381.09;;;12.18;100.00
68525;BME280;55524;51.380;13.372;2023-09-30T05:38:09;101395.06;;;12.23;100.00
68525;BME280;55524;51.380;13.372;2023-09-30T05:40:36;101398.47;;;12.28;100.00
68525;BME280;55524;51.380;13.372;2023-09-30T05:43:03;101393.06;;;12.31;100.00
68525;BME280;55524;51.380;13.372;2023-09-30T05:45:32;101398.19;;;12.37;100.00
68525;BME280;55524;51.380;13.372;2023-09-30T05:48:04;101408.56;;;12.45;100.00
68525;BME280;55524;51.380;13.372;2023-09-30T05:50:34;101407.63;;;12.47;100.00
68525;BME280;55524;51.380;13.372;2023-09-30T05:53:03;101403.03;;;12.52;100.00
68525;BME280;55524;51.380;13.372;2023-09-30T05:55:30;101411.81;;;12.54;100.00
68525;BME280;55524;51.380;13.372;2023-09-30T05:57:57;101417.03;;;12.58;100.00
68525;BME280;55524;51.380;13.372;2023-09-30T06:00:23;101427.72;;;12.54;100.00
68525;BME280;55524;51.380;13.372;2023-09-30T06:02:55;101416.31;;;12.52;100.00
68525;BME280;55524;51.380;13.372;2023-09-30T06:05:22;101420.50;;;12.60;100.00
68525;BME280;55524;51.380;13.372;2023-09-30T06:07:49;101432.13;;;12.55;100.00
68525;BME280;55524;51.380;13.372;2023-09-30T06:10:16;101433.03;;;12.54;100.00
68525;BME280;55524;51.380;13.372;2023-09-30T06:12:45;101435.88;;;12.48;100.00
68525;BME280;55524;51.380;13.372;2023-09-30T06:15:15;101449.03;;;12.51;100.00
68525;BME280;55524;51.380;13.372;2023-09-30T06:17:43;101450.91;;;12.48;100.00
68525;BME280;55524;51.380;13.372;2023-09-30T06:20:10;101458.53;;;12.59;100.00
68525;BME280;55524;51.380;13.372;2023-09-30T06:22:43;101469.38;;;12.51;100.00
68525;BME280;55524;51.380;13.372;2023-09-30T06:25:12;101470.03;;;12.59;100.00
68525;BME280;55524;51.380;13.372;2023-09-30T06:27:39;101480.41;;;12.67;100.00
68525;BME280;55524;51.380;13.372;2023-09-30T06:30:06;101482.09;;;12.69;100.00
68525;BME280;55524;51.380;13.372;2023-09-30T06:32:32;101480.16;;;12.74;100.00
68525;BME280;55524;51.380;13.372;2023-09-30T06:34:59;101488.69;;;12.86;100.00
68525;BME280;55524;51.380;13.372;2023-09-30T06:37:26;101486.88;;;12.88;100.00
68525;BME280;55524;51.380;13.372;2023-09-30T06:39:53;101487.53;;;12.94;100.00
68525;BME280;55524;51.380;13.372;2023-09-30T06:42:19;101490.94;;;12.99;100.00
68525;BME280;55524;51.380;13.372;2023-09-30T06:44:45;101481.91;;;13.05;100.00
68525;BME280;55524;51.380;13.372;2023-09-30T06:47:12;101493.16;;;13.13;100.00
68525;BME280;55524;51.380;13.372;2023-09-30T06:49:39;101487.69;;;13.18;100.00
68525;BME280;55524;51.380;13.372;2023-09-30T06:52:05;101498.28;;;13.19;100.00
68525;BME280;55524;51.380;13.372;2023-09-30T06:54:32;101502.75;;;13.17;100.00
68525;BME280;55524;51.380;13.372;2023-09-30T06:56:59;101492.56;;;13.33;100.00
68525;BME280;55524;51.380;13.372;2023-09-30T06:59:26;101497.38;;;13.48;100.00
68525;BME280;55524;51.380;13.372;2023-09-30T07:01:52;101503.13;;;13.63;100.00
68525;BME280;55524;51.380;13.372;2023-09-30T07:04:18;101504.50;;;13.74;100.00
68525;BME280;55524;51.380;13.372;2023-09-30T07:06:44;101507.56;;;13.89;100.00
68525;BME280;55524;51.380;13.372;2023-09-30T07:09:11;101499.25;;;14.96;100.00
68525;BME280;55524;51.380;13.372;2023-09-30T07:11:38;101453.69;;;16.50;100.00
68525;BME280;55524;51.380;13.372;2023-09-30T07:14:04;101400.97;;;17.83;100.00
68525;BME280;55524;51.380;13.372;2023-09-30T07:16:31;101377.50;;;18.21;98.70
68525;BME280;55524;51.380;13.372;2023-09-30T07:18:57;101395.69;;;17.47;99.39
68525;BME280;55524;51.380;13.372;2023-09-30T07:21:23;101414.34;;;17.12;100.00
68525;BME280;55524;51.380;13.372;2023-09-30T07:23:50;101431.97;;;16.78;100.00
68525;BME280;55524;51.380;13.372;2023-09-30T07:26:16;101450.66;;;16.39;100.00
68525;BME280;55524;51.380;13.372;2023-09-30T07:28:42;101443.63;;;16.17;100.00
68525;BME280;55524;51.380;13.372;2023-09-30T07:31:08;101459.44;;;16.02;100.00
68525;BME280;55524;51.380;13.372;2023-09-30T07:33:35;101457.16;;;16.13;100.00
68525;BME280;55524;51.380;13.372;2023-09-30T07:36:01;101476.69;;;16.13;100.00
68525;BME280;55524;51.380;13.372;2023-09-30T07:38:27;101467.44;;;16.22;100.00
68525;BME280;55524;51.380;13.372;2023-09-30T07:40:53;101458.91;;;15.93;100.00
68525;BME280;55524;51.380;13.372;2023-09-30T07:43:20;101464.81;;;15.80;100.00
68525;BME280;55524;51.380;13.372;2023-09-30T07:45:46;101462.97;;;16.02;100.00
68525;BME280;55524;51.380;13.372;2023-09-30T07:48:12;101468.84;;;15.90;100.00
68525;BME280;55524;51.380;13.372;2023-09-30T07:50:40;101473.03;;;15.95;100.00
68525;BME280;55524;51.380;13.372;2023-09-30T07:53:08;101466.16;;;15.69;100.00
68525;BME280;55524;51.380;13.372;2023-09-30T07:55:35;101477.81;;;15.87;100.00
68525;BME280;55524;51.380;13.372;2023-09-30T07:58:01;101457.78;;;16.19;100.00
68525;BME280;55524;51.380;13.372;2023-09-30T08:00:29;101450.22;;;16.29;99.72
68525;BME280;55524;51.380;13.372;2023-09-30T08:02:55;101442.22;;;16.29;99.00
68525;BME280;55524;51.380;13.372;2023-09-30T08:05:22;101461.78;;;16.09;99.72
68525;BME280;55524;51.380;13.372;2023-09-30T08:07:48;101478.22;;;15.98;100.00
68525;BME280;55524;51.380;13.372;2023-09-30T08:10:14;101472.66;;;16.05;100.00
68525;BME280;55524;51.380;13.372;2023-09-30T08:12:43;101477.97;;;15.84;100.00
68525;BME280;55524;51.380;13.372;2023-09-30T08:15:12;101466.91;;;15.93;100.00
68525;BME280;55524;51.380;13.372;2023-09-30T08:17:38;101468.63;;;15.94;100.00
68525;BME280;55524;51.380;13.372;2023-09-30T08:20:05;101476.63;;;15.94;100.00
68525;BME280;55524;51.380;13.372;2023-09-30T08:22:31;101473.72;;;16.01;100.00
68525;BME280;55524;51.380;13.372;2023-09-30T08:24:58;101471.97;;;15.99;100.00
68525;BME280;55524;51.380;13.372;2023-09-30T08:27:25;101470.88;;;15.83;100.00
68525;BME280;55524;51.380;13.372;2023-09-30T08:29:51;101476.22;;;15.83;100.00
68525;BME280;55524;51.380;13.372;2023-09-30T08:32:18;101476.38;;;15.80;100.00
68525;BME280;55524;51.380;13.372;2023-09-30T08:34:44;101481.19;;;15.92;100.00
68525;BME280;55524;51.380;13.372;2023-09-30T08:37:10;101471.38;;;16.13;99.04
68525;BME280;55524;51.380;13.372;2023-09-30T08:39:40;101473.38;;;16.68;95.66
68525;BME280;55524;51.380;13.372;2023-09-30T08:42:10;101467.06;;;16.50;93.53
68525;BME280;55524;51.380;13.372;2023-09-30T08:44:40;101470.56;;;16.71;95.30
68525;BME280;55524;51.380;13.372;2023-09-30T08:47:06;101469.09;;;16.64;94.87
68525;BME280;55524;51.380;13.372;2023-09-30T08:49:38;101466.63;;;16.80;93.60
68525;BME280;55524;51.380;13.372;2023-09-30T08:52:09;101459.13;;;16.88;92.01
68525;BME280;55524;51.380;13.372;2023-09-30T08:54:35;101472.31;;;16.91;91.31
68525;BME280;55524;51.380;13.372;2023-09-30T08:57:03;101476.03;;;16.68;91.57
68525;BME280;55524;51.380;13.372;2023-09-30T08:59:32;101473.53;;;16.44;92.26
68525;BME280;55524;51.380;13.372;2023-09-30T09:02:01;101491.00;;;16.52;92.86
68525;BME280;55524;51.380;13.372;2023-09-30T09:04:28;101491.00;;;16.52;93.04
68525;BME280;55524;51.380;13.372;2023-09-30T09:06:54;101498.50;;;16.23;94.05
68525;BME280;55524;51.380;13.372;2023-09-30T09:09:23;101509.03;;;16.26;95.72
68525;BME280;55524;51.380;13.372;2023-09-30T09:11:50;101520.69;;;16.03;97.43
68525;BME280;55524;51.380;13.372;2023-09-30T09:14:17;101502.09;;;16.22;95.42
68525;BME280;55524;51.380;13.372;2023-09-30T09:16:54;101488.53;;;16.47;94.57
68525;BME280;55524;51.380;13.372;2023-09-30T09:19:21;101490.19;;;16.50;91.75
68525;BME280;55524;51.380;13.372;2023-09-30T09:24:48;101458.53;;;17.36;87.23
68525;BME280;55524;51.380;13.372;2023-09-30T09:27:17;101444.38;;;17.88;83.93
68525;BME280;55524;51.380;13.372;2023-09-30T09:29:45;101414.81;;;18.24;80.00
68525;BME280;55524;51.380;13.372;2023-09-30T09:32:16;101423.03;;;18.37;80.15
68525;BME280;55524;51.380;13.372;2023-09-30T09:34:43;101421.88;;;18.25;79.80
68525;BME280;55524;51.380;13.372;2023-09-30T09:37:20;101405.53;;;17.81;77.35
68525;BME280;55524;51.380;13.372;2023-09-30T09:40:05;101412.69;;;17.80;77.64
68525;BME280;55524;51.380;13.372;2023-09-30T09:42:33;101424.59;;;17.73;80.44
68525;BME280;55524;51.380;13.372;2023-09-30T09:45:03;101383.44;;;18.43;73.95
68525;BME280;55524;51.380;13.372;2023-09-30T09:47:31;101381.84;;;18.73;72.68
68525;BME280;55524;51.380;13.372;2023-09-30T09:49:58;101369.09;;;17.96;69.96
68525;BME280;55524;51.380;13.372;2023-09-30T09:52:25;101375.50;;;18.09;71.87
68525;BME280;55524;51.380;13.372;2023-09-30T09:54:52;101377.91;;;18.47;70.09
68525;BME280;55524;51.380;13.372;2023-09-30T09:57:19;101365.25;;;18.82;68.71
68525;BME280;55524;51.380;13.372;2023-09-30T09:59:47;101343.88;;;18.96;64.71
68525;BME280;55524;51.380;13.372;2023-09-30T10:02:15;101348.22;;;18.99;64.96
68525;BME280;55524;51.380;13.372;2023-09-30T10:04:45;101332.13;;;18.99;63.64
68525;BME280;55524;51.380;13.372;2023-09-30T10:07:21;101333.53;;;19.20;63.62
68525;BME280;55524;51.380;13.372;2023-09-30T10:09:50;101332.47;;;19.69;63.41
68525;BME280;55524;51.380;13.372;2023-09-30T10:12:19;101331.41;;;19.71;62.42
68525;BME280;55524;51.380;13.372;2023-09-30T10:14:47;101324.34;;;19.84;61.09
68525;BME280;55524;51.380;13.372;2023-09-30T10:17:13;101333.44;;;19.37;61.64
68525;BME280;55524;51.380;13.372;2023-09-30T10:20:05;101323.75;;;19.79;60.74
68525;BME280;55524;51.380;13.372;2023-09-30T10:22:33;101320.50;;;20.03;59.93
68525;BME280;55524;51.380;13.372;2023-09-30T10:25:00;101321.38;;;19.59;59.79
68525;BME280;55524;51.380;13.372;2023-09-30T10:27:27;101320.03;;;19.37;59.96
68525;BME280;55524;51.380;13.372;2023-09-30T10:35:21;101317.28;;;20.39;56.42
68525;BME280;55524;51.380;13.372;2023-09-30T10:37:48;101300.53;;;20.21;56.40
68525;BME280;55524;51.380;13.372;2023-09-30T10:40:28;101325.94;;;19.87;58.77
68525;BME280;55524;51.380;13.372;2023-09-30T10:42:55;101320.22;;;19.93;57.61
68525;BME280;55524;51.380;13.372;2023-09-30T10:51:12;101266.31;;;21.06;52.34
68525;BME280;55524;51.380;13.372;2023-09-30T10:53:47;101293.09;;;20.12;55.09
68525;BME280;55524;51.380;13.372;2023-09-30T10:56:14;101291.72;;;20.19;54.99
68525;BME280;55524;51.380;13.372;2023-09-30T10:58:42;101301.59;;;19.76;56.00
68525;BME280;55524;51.380;13.372;2023-09-30T11:01:13;101297.72;;;19.96;55.88
68525;BME280;55524;51.380;13.372;2023-09-30T11:03:43;101295.56;;;20.15;54.69
68525;BME280;55524;51.380;13.372;2023-09-30T11:06:14;101270.22;;;20.33;51.95
68525;BME280;55524;51.380;13.372;2023-09-30T11:11:15;101240.03;;;20.71;50.33
68525;BME280;55524;51.380;13.372;2023-09-30T11:13:41;101267.88;;;20.42;52.54
68525;BME280;55524;51.380;13.372;2023-09-30T11:16:07;101252.16;;;20.77;51.10
68525;BME280;55524;51.380;13.372;2023-09-30T11:18:34;101242.38;;;21.16;50.51
68525;BME280;55524;51.380;13.372;2023-09-30T11:21:05;101248.66;;;20.89;51.42
68525;BME280;55524;51.380;13.372;2023-09-30T11:23:33;101260.78;;;19.71;52.11
68525;BME280;55524;51.380;13.372;2023-09-30T11:25:59;101273.56;;;19.96;53.15
68525;BME280;55524;51.380;13.372;2023-09-30T11:28:36;101267.09;;;20.12;52.71
68525;BME280;55524;51.380;13.372;2023-09-30T11:31:03;101255.91;;;19.77;52.87
68525;BME280;55524;51.380;13.372;2023-09-30T11:33:31;101267.06;;;19.55;54.00
68525;BME280;55524;51.380;13.372;2023-09-30T11:36:06;101266.63;;;19.49;53.96
68525;BME280;55524;51.380;13.372;2023-09-30T11:38:34;101272.59;;;19.68;54.58
68525;BME280;55524;51.380;13.372;2023-09-30T11:41:02;101248.91;;;19.89;52.33
68525;BME280;55524;51.380;13.372;2023-09-30T11:43:32;101257.25;;;19.84;52.87
68525;BME280;55524;51.380;13.372;2023-09-30T11:46:12;101237.25;;;20.31;51.14
68525;BME280;55524;51.380;13.372;2023-09-30T11:48:58;101238.78;;;20.35;51.55
68525;BME280;55524;51.380;13.372;2023-09-30T11:51:28;101237.41;;;21.09;51.81
68525;BME280;55524;51.380;13.372;2023-09-30T11:53:55;101222.84;;;21.39;49.65
68525;BME280;55524;51.380;13.372;2023-09-30T11:56:23;101213.47;;;21.45;49.25
68525;BME280;55524;51.380;13.372;2023-09-30T11:58:56;101218.63;;;20.82;50.24
68525;BME280;55524;51.380;13.372;2023-09-30T12:01:22;101227.50;;;20.16;50.67
68525;BME280;55524;51.380;13.372;2023-09-30T12:03:51;101236.66;;;19.71;51.88
68525;BME280;55524;51.380;13.372;2023-09-30T12:06:18;101248.84;;;19.32;52.98
68525;BME280;55524;51.380;13.372;2023-09-30T12:08:44;101269.66;;;19.28;54.74
68525;BME280;55524;51.380;13.372;2023-09-30T12:11:11;101265.22;;;19.27;54.90
68525;BME280;55524;51.380;13.372;2023-09-30T12:13:42;101270.00;;;19.22;54.83
68525;BME280;55524;51.380;13.372;2023-09-30T12:16:11;101277.94;;;19.24;55.90
68525;BME280;55524;51.380;13.372;2023-09-30T12:18:39;101280.44;;;19.12;55.88
68525;BME280;55524;51.380;13.372;2023-09-30T12:21:09;101269.69;;;19.57;54.97
68525;BME280;55524;51.380;13.372;2023-09-30T12:23:36;101259.75;;;19.73;54.62
68525;BME280;55524;51.380;13.372;2023-09-30T12:26:03;101237.63;;;20.39;52.49
68525;BME280;55524;51.380;13.372;2023-09-30T12:28:35;101216.25;;;20.65;50.85
68525;BME280;55524;51.380;13.372;2023-09-30T12:31:02;101201.84;;;20.66;50.09
68525;BME280;55524;51.380;13.372;2023-09-30T12:33:32;101203.50;;;20.94;50.11
68525;BME280;55524;51.380;13.372;2023-09-30T12:35:58;101165.78;;;21.21;48.30
68525;BME280;55524;51.380;13.372;2023-09-30T12:38:25;101150.44;;;21.36;47.21
68525;BME280;55524;51.380;13.372;2023-09-30T12:40:54;101153.13;;;21.10;47.08
68525;BME280;55524;51.380;13.372;2023-09-30T12:43:22;101163.84;;;21.49;47.82
68525;BME280;55524;51.380;13.372;2023-09-30T12:45:48;101165.38;;;21.27;47.80
68525;BME280;55524;51.380;13.372;2023-09-30T12:48:15;101176.03;;;20.36;49.43
68525;BME280;55524;51.380;13.372;2023-09-30T12:50:46;101185.78;;;20.25;49.78
68525;BME280;55524;51.380;13.372;2023-09-30T12:53:12;101189.84;;;20.03;50.59